createdAt,value
2018-06-27T00:00:07.213Z,995.75
2018-06-27T00:01:07.200Z,995.73
2018-06-27T00:02:21.698Z,995.76
2018-06-27T00:03:07.700Z,995.72
2018-06-27T00:04:07.703Z,995.73
2018-06-27T00:05:08.698Z,995.75
2018-06-27T00:06:08.207Z,995.73
2018-06-27T00:08:39.566Z,995.74
2018-06-27T00:09:38.928Z,995.73
2018-06-27T00:10:39.596Z,995.76
2018-06-27T00:13:32.322Z,995.71
2018-06-27T00:14:32.330Z,995.71
2018-06-27T00:15:33.258Z,995.70
2018-06-27T00:17:43.070Z,995.70
2018-06-27T00:18:42.413Z,995.68
2018-06-27T00:19:43.085Z,995.68
2018-06-27T00:21:04.079Z,995.68
2018-06-27T00:23:14.092Z,995.65
2018-06-27T00:24:14.841Z,995.65
2018-06-27T00:25:14.314Z,995.64
2018-06-27T00:27:46.572Z,995.61
2018-06-27T00:28:46.617Z,995.66
2018-06-27T00:29:46.580Z,995.66
2018-06-27T00:30:46.579Z,995.64
2018-06-27T00:31:47.079Z,995.63
2018-06-27T00:32:47.079Z,995.59
2018-06-27T00:33:47.116Z,995.60
2018-06-27T00:34:47.080Z,995.64
2018-06-27T00:36:08.582Z,995.62
2018-06-27T00:36:46.811Z,995.64
2018-06-27T00:37:48.512Z,995.64
2018-06-27T00:38:47.044Z,995.60
2018-06-27T00:40:09.075Z,995.53
2018-06-27T00:40:48.093Z,995.61
2018-06-27T00:41:47.421Z,995.61
2018-06-27T00:42:48.080Z,995.59
2018-06-27T00:43:48.579Z,995.58
2018-06-27T00:44:48.587Z,995.54
2018-06-27T00:45:48.579Z,995.58
2018-06-27T00:46:49.577Z,995.57
2018-06-27T00:47:49.079Z,995.58
2018-06-27T00:49:10.080Z,995.58
2018-06-27T00:49:49.079Z,995.57
2018-06-27T00:50:49.076Z,995.56
2018-06-27T00:51:49.579Z,995.57
2018-06-27T00:53:09.776Z,995.56
2018-06-27T00:55:21.036Z,995.54
2018-06-27T00:56:42.051Z,995.57
2018-06-27T00:57:21.043Z,995.52
2018-06-27T01:00:13.042Z,995.50
2018-06-27T01:00:52.142Z,995.47
2018-06-27T01:01:59.736Z,995.47
2018-06-27T01:02:53.303Z,995.47
2018-06-27T01:03:53.303Z,995.44
2018-06-27T01:04:53.303Z,995.46
2018-06-27T01:05:53.303Z,995.41
2018-06-27T01:06:52.901Z,995.40
2018-06-27T01:07:53.801Z,995.42
2018-06-27T01:08:55.280Z,995.40
2018-06-27T01:09:53.269Z,995.41
2018-06-27T01:10:53.390Z,995.43
2018-06-27T01:12:10.735Z,995.37
2018-06-27T01:12:54.320Z,995.37
2018-06-27T01:13:53.774Z,995.42
2018-06-27T01:15:08.802Z,995.39
2018-06-27T01:16:15.804Z,995.38
2018-06-27T01:16:54.804Z,995.37
2018-06-27T01:17:54.286Z,995.39
2018-06-27T01:18:55.303Z,995.36
2018-06-27T01:19:56.251Z,995.36
2018-06-27T01:20:55.302Z,995.36
2018-06-27T01:21:55.301Z,995.34
2018-06-27T01:22:54.899Z,995.37
2018-06-27T01:24:16.803Z,995.33
2018-06-27T01:24:55.803Z,995.31
2018-06-27T01:25:55.331Z,995.36
2018-06-27T01:26:57.803Z,995.35
2018-06-27T01:27:56.300Z,995.37
2018-06-27T01:28:56.311Z,995.33
2018-06-27T01:29:57.301Z,995.34
2018-06-27T01:30:58.802Z,995.32
2018-06-27T01:31:56.807Z,995.35
2018-06-27T01:33:17.807Z,995.35
2018-06-27T01:33:56.276Z,995.34
2018-06-27T01:34:56.379Z,995.30
2018-06-27T01:35:57.302Z,995.32
2018-06-27T01:36:57.304Z,995.30
2018-06-27T01:37:57.298Z,995.36
2018-06-27T01:38:57.300Z,995.34
2018-06-27T01:41:29.046Z,995.34
2018-06-27T01:42:29.052Z,995.29
2018-06-27T01:43:29.552Z,995.32
2018-06-27T01:44:29.559Z,995.31
2018-06-27T01:45:29.555Z,995.31
2018-06-27T01:46:32.485Z,995.32
2018-06-27T01:47:29.552Z,995.30
2018-06-27T01:48:30.056Z,995.30
2018-06-27T01:49:30.054Z,995.32
2018-06-27T01:50:30.055Z,995.32
2018-06-27T01:51:30.051Z,995.33
2018-06-27T01:52:30.552Z,995.33
2018-06-27T01:53:30.549Z,995.42
2018-06-27T01:54:30.558Z,995.41
2018-06-27T01:55:30.564Z,995.42
2018-06-27T01:56:52.985Z,995.41
2018-06-27T01:57:45.048Z,995.42
2018-06-27T01:58:45.126Z,995.42
2018-06-27T01:59:31.052Z,995.39
2018-06-27T02:00:31.558Z,995.37
2018-06-27T02:01:37.552Z,995.36
2018-06-27T02:02:31.552Z,995.39
2018-06-27T02:03:31.552Z,995.36
2018-06-27T02:04:32.057Z,995.41
2018-06-27T02:05:38.052Z,995.40
2018-06-27T02:06:32.053Z,995.39
2018-06-27T02:07:32.052Z,995.42
2018-06-27T02:08:33.552Z,995.41
2018-06-27T02:09:32.551Z,995.42
2018-06-27T02:10:53.554Z,995.42
2018-06-27T02:11:33.054Z,995.47
2018-06-27T02:12:36.523Z,995.47
2018-06-27T02:13:33.053Z,995.47
2018-06-27T02:14:33.076Z,995.47
2018-06-27T02:15:33.055Z,995.50
2018-06-27T02:16:33.552Z,995.47
2018-06-27T02:17:33.551Z,995.43
2018-06-27T02:18:33.552Z,995.47
2018-06-27T02:19:33.551Z,995.47
2018-06-27T02:20:35.513Z,995.44
2018-06-27T02:21:34.057Z,995.50
2018-06-27T02:22:34.052Z,995.47
2018-06-27T02:23:34.051Z,995.46
2018-06-27T02:26:05.802Z,995.50
2018-06-27T02:27:07.741Z,995.46
2018-06-27T02:28:06.771Z,995.49
2018-06-27T02:29:08.307Z,995.47
2018-06-27T02:30:06.309Z,995.47
2018-06-27T02:31:06.309Z,995.50
2018-06-27T02:32:06.308Z,995.47
2018-06-27T02:33:26.888Z,995.44
2018-06-27T02:34:06.810Z,995.50
2018-06-27T02:35:06.814Z,995.47
2018-06-27T02:36:06.809Z,995.47
2018-06-27T02:37:06.808Z,995.45
2018-06-27T02:38:07.312Z,995.45
2018-06-27T02:40:40.716Z,995.48
2018-06-27T02:41:38.069Z,995.48
2018-06-27T02:42:38.723Z,995.48
2018-06-27T02:43:39.230Z,995.49
2018-06-27T02:44:39.249Z,995.48
2018-06-27T02:45:39.221Z,995.49
2018-06-27T02:46:39.222Z,995.52
2018-06-27T02:48:01.677Z,995.53
2018-06-27T02:50:34.043Z,995.62
2018-06-27T02:51:10.396Z,995.56
2018-06-27T02:52:11.057Z,995.59
2018-06-27T02:53:13.552Z,995.59
2018-06-27T02:54:11.549Z,995.62
2018-06-27T02:55:11.555Z,995.63
2018-06-27T02:56:13.524Z,995.62
2018-06-27T02:57:13.484Z,995.58
2018-06-27T02:58:14.051Z,995.60
2018-06-27T02:59:12.049Z,995.61
2018-06-27T03:00:12.053Z,995.62
2018-06-27T03:01:12.052Z,995.60
2018-06-27T03:02:14.549Z,995.63
2018-06-27T03:03:39.548Z,995.64
2018-06-27T03:04:33.551Z,995.67
2018-06-27T03:05:12.549Z,995.62
2018-06-27T03:06:34.049Z,995.62
2018-06-27T03:07:34.050Z,995.64
2018-06-27T03:08:13.059Z,995.62
2018-06-27T03:09:34.059Z,995.61
2018-06-27T03:10:27.552Z,995.63
2018-06-27T03:11:33.747Z,995.63
2018-06-27T03:12:13.550Z,995.64
2018-06-27T03:13:13.556Z,995.63
2018-06-27T03:14:13.546Z,995.68
2018-06-27T03:15:14.049Z,995.68
2018-06-27T03:16:14.051Z,995.69
2018-06-27T03:17:14.048Z,995.64
2018-06-27T03:18:13.549Z,995.64
2018-06-27T03:19:14.552Z,995.66
2018-06-27T03:20:14.567Z,995.63
2018-06-27T03:21:14.548Z,995.65
2018-06-27T03:22:14.549Z,995.62
2018-06-27T03:23:14.145Z,995.58
2018-06-27T03:24:36.049Z,995.63
2018-06-27T03:25:14.406Z,995.63
2018-06-27T03:26:21.048Z,995.67
2018-06-27T03:27:22.550Z,995.65
2018-06-27T03:29:46.910Z,995.72
2018-06-27T03:30:46.918Z,995.76
2018-06-27T03:31:46.915Z,995.75
2018-06-27T03:32:47.414Z,995.73
2018-06-27T03:33:48.877Z,995.72
2018-06-27T03:34:47.419Z,995.71
2018-06-27T03:35:47.416Z,995.76
2018-06-27T03:36:47.012Z,995.71
2018-06-27T03:37:48.921Z,995.75
2018-06-27T03:38:47.921Z,995.73
2018-06-27T03:39:47.915Z,995.78
2018-06-27T03:41:09.414Z,995.71
2018-06-27T03:41:48.418Z,995.72
2018-06-27T03:42:48.421Z,995.72
2018-06-27T03:43:48.415Z,995.69
2018-06-27T03:44:50.912Z,995.66
2018-06-27T03:45:51.846Z,995.73
2018-06-27T03:47:09.924Z,995.74
2018-06-27T03:47:50.848Z,995.72
2018-06-27T03:49:12.412Z,995.74
2018-06-27T03:50:09.503Z,995.75
2018-06-27T03:51:10.414Z,995.79
2018-06-27T03:51:49.414Z,995.78
2018-06-27T03:52:49.419Z,995.78
2018-06-27T03:53:49.422Z,995.77
2018-06-27T03:55:03.916Z,995.80
2018-06-27T03:56:10.917Z,995.83
2018-06-27T03:56:49.915Z,995.82
2018-06-27T03:57:49.914Z,995.81
2018-06-27T04:00:21.661Z,995.78
2018-06-27T04:02:55.115Z,995.75
2018-06-27T04:03:54.113Z,995.78
2018-06-27T04:04:53.661Z,995.79
2018-06-27T04:06:14.661Z,995.80
2018-06-27T04:07:14.661Z,995.77
2018-06-27T04:08:15.617Z,995.77
2018-06-27T04:08:53.094Z,995.76
2018-06-27T04:10:14.167Z,995.78
2018-06-27T04:10:53.269Z,995.75
2018-06-27T04:11:56.593Z,995.76
2018-06-27T04:13:18.718Z,995.75
2018-06-27T04:13:54.161Z,995.75
2018-06-27T04:14:54.161Z,995.78
2018-06-27T04:16:15.661Z,995.80
2018-06-27T04:18:26.031Z,995.82
2018-06-27T04:19:25.391Z,995.77
2018-06-27T04:20:26.039Z,995.82
2018-06-27T04:21:26.536Z,995.83
2018-06-27T04:22:47.537Z,995.79
2018-06-27T04:23:28.007Z,995.83
2018-06-27T04:24:47.537Z,995.84
2018-06-27T04:25:49.511Z,995.86
2018-06-27T04:26:47.215Z,995.86
2018-06-27T04:27:49.503Z,995.84
2018-06-27T04:28:27.043Z,995.83
2018-06-27T04:29:48.969Z,995.82
2018-06-27T04:30:37.970Z,995.79
2018-06-27T04:36:01.824Z,995.78
2018-06-27T04:37:24.206Z,995.79
2018-06-27T04:38:01.772Z,995.77
2018-06-27T04:39:08.300Z,995.79
2018-06-27T04:40:02.271Z,995.81
2018-06-27T04:41:23.278Z,995.79
2018-06-27T04:42:02.272Z,995.83
2018-06-27T04:43:16.836Z,995.84
2018-06-27T04:44:02.772Z,995.86
2018-06-27T04:45:23.771Z,995.86
2018-06-27T04:46:02.771Z,995.86
2018-06-27T04:48:35.952Z,995.90
2018-06-27T04:49:33.863Z,995.88
2018-06-27T04:50:54.956Z,995.91
2018-06-27T04:53:08.643Z,995.92
2018-06-27T04:54:06.206Z,995.89
2018-06-27T04:55:27.206Z,995.86
2018-06-27T04:57:37.971Z,995.83
2018-06-27T04:58:37.980Z,995.88
2018-06-27T04:59:37.978Z,995.91
2018-06-27T05:00:40.911Z,995.90
2018-06-27T05:01:38.526Z,995.88
2018-06-27T05:02:37.831Z,995.89
2018-06-27T05:05:32.524Z,995.89
2018-06-27T05:06:11.523Z,995.92
2018-06-27T05:07:10.091Z,995.92
2018-06-27T05:08:10.627Z,995.92
2018-06-27T05:09:10.594Z,995.92
2018-06-27T05:10:10.592Z,995.90
2018-06-27T05:11:10.591Z,995.90
2018-06-27T05:13:42.349Z,995.87
2018-06-27T05:14:42.361Z,995.85
2018-06-27T05:15:42.367Z,995.86
2018-06-27T05:18:15.536Z,995.83
2018-06-27T05:19:14.104Z,995.84
2018-06-27T05:20:14.104Z,995.87
2018-06-27T05:21:16.059Z,995.85
2018-06-27T05:23:59.933Z,995.84
2018-06-27T05:24:45.273Z,995.83
2018-06-27T05:25:45.934Z,995.85
2018-06-27T05:27:07.433Z,995.83
2018-06-27T05:28:07.440Z,995.87
2018-06-27T05:28:46.435Z,995.86
2018-06-27T05:29:46.435Z,995.85
2018-06-27T05:30:46.941Z,995.80
2018-06-27T05:31:46.167Z,995.80
2018-06-27T05:32:46.935Z,995.80
2018-06-27T05:33:46.934Z,995.79
2018-06-27T05:34:47.435Z,995.78
2018-06-27T05:35:47.435Z,995.79
2018-06-27T05:36:46.782Z,995.83
2018-06-27T05:37:47.438Z,995.79
2018-06-27T05:39:08.009Z,995.85
2018-06-27T05:40:08.934Z,995.85
2018-06-27T05:40:47.158Z,995.83
2018-06-27T05:41:47.261Z,995.85
2018-06-27T05:42:47.937Z,995.84
2018-06-27T05:43:47.960Z,995.89
2018-06-27T05:46:40.712Z,995.91
2018-06-27T05:48:51.713Z,996.00
2018-06-27T05:49:51.720Z,995.95
2018-06-27T05:50:51.722Z,996.01
2018-06-27T05:51:52.215Z,996.02
2018-06-27T05:54:46.024Z,996.02
2018-06-27T05:55:23.592Z,996.02
2018-06-27T05:56:44.592Z,996.00
2018-06-27T05:57:30.094Z,996.00
2018-06-27T05:58:45.106Z,995.97
2018-06-27T05:59:38.142Z,996.00
2018-06-27T06:00:23.602Z,995.96
2018-06-27T06:01:23.700Z,995.96
2018-06-27T06:02:24.590Z,995.94
2018-06-27T06:03:24.591Z,995.96
2018-06-27T06:04:24.615Z,995.93
2018-06-27T06:06:56.354Z,995.96
2018-06-27T06:07:56.363Z,995.98
2018-06-27T06:08:56.347Z,995.99
2018-06-27T06:11:28.177Z,996.02
2018-06-27T06:12:29.111Z,996.03
2018-06-27T06:13:28.116Z,996.04
2018-06-27T06:14:34.623Z,996.01
2018-06-27T06:17:22.443Z,996.01
2018-06-27T06:18:00.020Z,995.93
2018-06-27T06:19:00.025Z,995.98
2018-06-27T06:20:00.512Z,996.02
2018-06-27T06:21:21.514Z,995.99
2018-06-27T06:22:00.515Z,996.01
2018-06-27T06:23:00.516Z,995.97
2018-06-27T06:24:24.016Z,995.99
2018-06-27T06:25:01.012Z,995.95
2018-06-27T06:26:01.012Z,996.01
2018-06-27T06:28:22.509Z,995.98
2018-06-27T06:30:53.922Z,995.97
2018-06-27T06:31:33.937Z,995.92
2018-06-27T06:32:32.971Z,995.92
2018-06-27T06:33:36.865Z,995.95
2018-06-27T06:34:54.429Z,995.97
2018-06-27T06:35:47.429Z,995.97
2018-06-27T06:38:00.940Z,995.96
2018-06-27T06:41:44.195Z,995.94
2018-06-27T06:42:36.763Z,995.95
2018-06-27T06:43:36.762Z,995.92
2018-06-27T06:44:37.267Z,995.93
2018-06-27T06:45:37.264Z,995.93
2018-06-27T06:46:37.263Z,995.94
2018-06-27T06:48:00.195Z,995.93
2018-06-27T06:48:58.764Z,995.93
2018-06-27T06:49:58.771Z,995.90
2018-06-27T06:50:37.764Z,995.92
2018-06-27T06:51:37.763Z,995.93
2018-06-27T06:52:38.257Z,995.92
2018-06-27T06:53:38.264Z,995.92
2018-06-27T06:54:38.263Z,995.91
2018-06-27T06:55:38.266Z,995.89
2018-06-27T06:56:52.763Z,995.90
2018-06-27T06:59:30.439Z,995.93
2018-06-27T07:00:09.539Z,995.95
2018-06-27T07:01:10.119Z,995.95
2018-06-27T07:02:10.655Z,995.93
2018-06-27T07:03:09.902Z,995.95
2018-06-27T07:04:10.655Z,995.92
2018-06-27T07:05:10.656Z,995.93
2018-06-27T07:07:48.413Z,995.93
2018-06-27T07:10:27.913Z,995.92
2018-06-27T07:14:18.342Z,995.94
2018-06-27T07:15:38.376Z,995.98
2018-06-27T07:16:16.856Z,995.98
2018-06-27T07:17:17.874Z,995.99
2018-06-27T07:19:57.240Z,995.97
2018-06-27T07:20:49.784Z,995.95
2018-06-27T07:21:50.283Z,996.00
2018-06-27T07:22:50.288Z,995.95
2018-06-27T07:23:52.290Z,995.93
2018-06-27T07:24:50.285Z,995.92
2018-06-27T07:27:43.043Z,995.91
2018-06-27T07:28:22.064Z,995.92
2018-06-27T07:29:22.548Z,995.88
2018-06-27T07:30:21.652Z,995.91
2018-06-27T07:31:43.550Z,995.94
2018-06-27T07:34:15.063Z,995.89
2018-06-27T07:34:54.096Z,995.87
2018-06-27T07:36:15.080Z,995.89
2018-06-27T07:37:08.568Z,995.88
2018-06-27T07:37:54.570Z,995.87
2018-06-27T07:38:54.570Z,995.82
2018-06-27T07:39:54.571Z,995.84
2018-06-27T07:41:17.513Z,995.85
2018-06-27T07:41:56.507Z,995.86
2018-06-27T07:44:26.471Z,995.83
2018-06-27T07:46:59.451Z,995.81
2018-06-27T07:47:57.983Z,995.75
2018-06-27T07:48:58.002Z,995.77
2018-06-27T07:50:25.486Z,995.75
2018-06-27T07:51:19.484Z,995.73
2018-06-27T07:51:57.847Z,995.70
2018-06-27T07:52:58.484Z,995.70
2018-06-27T07:53:58.124Z,995.68
2018-06-27T07:54:58.984Z,995.73
2018-06-27T07:55:58.341Z,995.69
2018-06-27T07:56:58.985Z,995.68
2018-06-27T07:57:59.918Z,995.68
2018-06-27T07:59:22.487Z,995.70
2018-06-27T08:00:04.486Z,995.72
2018-06-27T08:01:13.496Z,995.78
2018-06-27T08:01:59.498Z,995.71
2018-06-27T08:02:59.998Z,995.72
2018-06-27T08:03:59.220Z,995.78
2018-06-27T08:04:59.985Z,995.79
2018-06-27T08:06:00.098Z,995.72
2018-06-27T08:07:21.487Z,995.67
2018-06-27T08:07:59.734Z,995.68
2018-06-27T08:09:00.486Z,995.72
2018-06-27T08:10:00.492Z,995.74
2018-06-27T08:11:21.075Z,995.76
2018-06-27T08:13:32.347Z,995.65
2018-06-27T08:14:59.332Z,995.67
2018-06-27T08:15:32.334Z,995.73
2018-06-27T08:16:31.937Z,995.69
2018-06-27T08:17:53.161Z,995.68
2018-06-27T08:18:32.835Z,995.75
2018-06-27T08:19:32.858Z,995.70
2018-06-27T08:20:32.837Z,995.72
2018-06-27T08:21:47.332Z,995.64
2018-06-27T08:24:10.658Z,995.66
2018-06-27T08:28:07.679Z,995.61
2018-06-27T08:29:30.620Z,995.65
2018-06-27T08:30:07.166Z,995.60
2018-06-27T08:32:39.434Z,995.67
2018-06-27T08:33:38.788Z,995.70
2018-06-27T08:34:39.435Z,995.66
2018-06-27T08:35:42.391Z,995.70
2018-06-27T08:38:11.270Z,995.74
2018-06-27T08:39:11.277Z,995.77
2018-06-27T08:40:10.782Z,995.70
2018-06-27T08:41:25.776Z,995.75
2018-06-27T08:42:11.780Z,995.73
2018-06-27T08:43:13.778Z,995.75
2018-06-27T08:45:43.212Z,995.79
2018-06-27T08:46:43.314Z,995.70
2018-06-27T08:47:43.926Z,995.75
2018-06-27T08:48:44.428Z,995.72
2018-06-27T08:52:47.768Z,995.77
2018-06-27T08:54:10.246Z,995.73
2018-06-27T08:54:47.787Z,995.69
2018-06-27T08:55:48.708Z,995.73
2018-06-27T08:56:48.275Z,995.75
2018-06-27T08:58:09.275Z,995.85
2018-06-27T08:59:09.275Z,995.80
2018-06-27T08:59:48.276Z,995.76
2018-06-27T09:00:48.775Z,995.76
2018-06-27T09:01:48.774Z,995.73
2018-06-27T09:04:47.300Z,995.77
2018-06-27T09:06:53.806Z,995.73
2018-06-27T09:09:23.340Z,995.76
2018-06-27T09:11:54.841Z,995.74
2018-06-27T09:12:54.848Z,995.71
2018-06-27T09:13:54.848Z,995.77
2018-06-27T09:14:55.347Z,995.82
2018-06-27T09:17:26.744Z,995.79
2018-06-27T09:18:26.745Z,995.85
2018-06-27T09:19:26.745Z,995.81
2018-06-27T09:21:58.502Z,995.72
2018-06-27T09:22:58.506Z,995.74
2018-06-27T09:23:59.438Z,995.77
2018-06-27T09:25:01.006Z,995.80
2018-06-27T09:26:00.481Z,995.77
2018-06-27T09:26:59.011Z,995.71
2018-06-27T09:28:13.007Z,995.72
2018-06-27T09:35:48.494Z,995.67
2018-06-27T09:36:48.091Z,995.71
2018-06-27T09:37:41.993Z,995.67
2018-06-27T09:38:27.353Z,995.68
2018-06-27T09:39:48.997Z,995.69
2018-06-27T09:40:49.498Z,995.68
2018-06-27T09:41:30.507Z,995.67
2018-06-27T09:42:28.503Z,995.65
2018-06-27T09:43:28.497Z,995.57
2018-06-27T09:44:30.998Z,995.54
2018-06-27T09:45:49.999Z,995.57
2018-06-27T09:46:28.359Z,995.59
2018-06-27T09:47:30.996Z,995.55
2018-06-27T09:48:52.499Z,995.61
2018-06-27T09:49:52.499Z,995.55
2018-06-27T09:50:29.617Z,995.55
2018-06-27T09:51:50.064Z,995.55
2018-06-27T09:52:32.002Z,995.53
2018-06-27T09:53:52.460Z,995.52
2018-06-27T09:54:52.453Z,995.57
2018-06-27T09:55:44.001Z,995.59
2018-06-27T09:56:32.433Z,995.62
2018-06-27T09:59:01.101Z,995.54
2018-06-27T10:00:08.276Z,995.59
2018-06-27T10:01:01.267Z,995.55
2018-06-27T10:02:16.308Z,995.48
2018-06-27T10:03:02.308Z,995.45
2018-06-27T10:04:25.748Z,995.39
2018-06-27T10:05:02.318Z,995.41
2018-06-27T10:06:02.307Z,995.40
2018-06-27T10:07:27.265Z,995.42
2018-06-27T10:08:23.002Z,995.45
2018-06-27T10:09:23.807Z,995.43
2018-06-27T10:10:08.811Z,995.42
2018-06-27T10:11:23.813Z,995.49
2018-06-27T10:12:17.316Z,995.38
2018-06-27T10:13:03.308Z,995.38
2018-06-27T10:14:24.309Z,995.36
2018-06-27T10:16:40.941Z,995.33
2018-06-27T10:19:06.443Z,995.31
2018-06-27T10:20:08.445Z,995.36
2018-06-27T10:21:18.877Z,995.31
2018-06-27T10:23:44.214Z,995.37
2018-06-27T10:24:59.216Z,995.34
2018-06-27T10:25:38.213Z,995.31
2018-06-27T10:26:37.816Z,995.31
2018-06-27T10:27:38.727Z,995.25
2018-06-27T10:28:38.714Z,995.29
2018-06-27T10:29:53.213Z,995.30
2018-06-27T10:32:10.487Z,995.36
2018-06-27T10:33:31.498Z,995.33
2018-06-27T10:34:10.489Z,995.27
2018-06-27T10:35:10.992Z,995.29
2018-06-27T10:37:56.385Z,995.35
2018-06-27T10:41:47.355Z,995.36
2018-06-27T10:42:45.360Z,995.32
2018-06-27T10:43:45.359Z,995.24
2018-06-27T10:44:51.860Z,995.18
2018-06-27T10:45:45.864Z,995.18
2018-06-27T10:46:52.792Z,995.37
2018-06-27T10:47:45.331Z,995.32
2018-06-27T10:50:17.624Z,995.40
2018-06-27T10:51:18.539Z,995.37
2018-06-27T10:52:19.038Z,995.33
2018-06-27T10:53:17.202Z,995.32
2018-06-27T10:54:38.301Z,995.35
2018-06-27T10:55:18.109Z,995.35
2018-06-27T10:56:18.107Z,995.30
2018-06-27T10:57:18.106Z,995.33
2018-06-27T10:58:20.611Z,995.36
2018-06-27T10:59:39.607Z,995.27
2018-06-27T11:04:45.126Z,995.34
2018-06-27T11:05:22.698Z,995.33
2018-06-27T11:06:22.044Z,995.34
2018-06-27T11:07:22.692Z,995.29
2018-06-27T11:08:22.259Z,995.33
2018-06-27T11:10:57.020Z,995.35
2018-06-27T11:12:22.030Z,995.34
2018-06-27T11:12:54.546Z,995.37
2018-06-27T11:15:26.900Z,995.34
2018-06-27T11:16:26.844Z,995.39
2018-06-27T11:17:48.314Z,995.42
2018-06-27T11:18:27.420Z,995.33
2018-06-27T11:19:48.322Z,995.40
2018-06-27T11:21:27.816Z,995.26
2018-06-27T11:22:48.816Z,995.28
2018-06-27T11:23:27.189Z,995.28
2018-06-27T11:24:29.249Z,995.20
2018-06-27T11:26:58.984Z,995.20
2018-06-27T11:29:33.595Z,995.34
2018-06-27T11:30:30.826Z,995.31
2018-06-27T11:31:38.596Z,995.25
2018-06-27T11:32:33.134Z,995.25
2018-06-27T11:33:38.118Z,995.20
2018-06-27T11:37:36.971Z,995.20
2018-06-27T11:40:26.772Z,995.14
2018-06-27T11:41:12.493Z,995.10
2018-06-27T11:43:38.134Z,995.09
2018-06-27T11:47:47.095Z,995.12
2018-06-27T11:50:14.601Z,995.13
2018-06-27T11:52:44.149Z,995.19
2018-06-27T11:53:44.156Z,995.08
2018-06-27T11:55:05.156Z,995.12
2018-06-27T11:55:46.659Z,995.14
2018-06-27T11:59:48.940Z,995.16
2018-06-27T12:01:08.505Z,995.29
2018-06-27T12:01:47.013Z,995.20
2018-06-27T12:03:08.089Z,995.22
2018-06-27T12:04:11.007Z,995.25
2018-06-27T12:04:54.012Z,995.23
2018-06-27T12:05:48.006Z,995.27
2018-06-27T12:06:50.507Z,995.26
2018-06-27T12:07:50.506Z,995.25
2018-06-27T12:10:20.024Z,995.24
2018-06-27T12:11:20.032Z,995.22
2018-06-27T12:12:19.542Z,995.23
2018-06-27T12:13:40.617Z,995.12
2018-06-27T12:14:19.724Z,995.17
2018-06-27T12:15:20.531Z,995.17
2018-06-27T12:16:22.549Z,995.09
2018-06-27T12:17:41.531Z,995.04
2018-06-27T12:18:23.033Z,995.04
2018-06-27T12:19:21.031Z,995.03
2018-06-27T12:20:21.036Z,995.07
2018-06-27T12:21:21.039Z,994.98
2018-06-27T12:22:27.532Z,995.02
2018-06-27T12:23:27.530Z,995.13
2018-06-27T12:24:21.537Z,995.12
2018-06-27T12:25:21.537Z,995.19
2018-06-27T12:28:07.299Z,995.14
2018-06-27T12:28:59.304Z,994.98
2018-06-27T12:29:53.305Z,995.06
2018-06-27T12:30:52.961Z,994.97
2018-06-27T12:31:54.242Z,995.03
2018-06-27T12:32:53.173Z,994.97
2018-06-27T12:33:56.236Z,995.00
2018-06-27T12:34:57.716Z,994.99
2018-06-27T12:39:03.131Z,994.90
2018-06-27T12:39:57.138Z,994.94
2018-06-27T12:40:57.141Z,994.87
2018-06-27T12:41:59.648Z,994.88
2018-06-27T12:44:43.042Z,994.92
2018-06-27T12:45:29.053Z,994.88
2018-06-27T12:46:50.076Z,994.92
2018-06-27T12:47:52.560Z,994.86
2018-06-27T12:48:29.547Z,994.95
2018-06-27T12:49:29.562Z,994.99
2018-06-27T12:52:01.735Z,994.97
2018-06-27T12:53:03.147Z,994.98
2018-06-27T12:57:04.952Z,994.90
2018-06-27T12:58:04.954Z,994.89
2018-06-27T13:03:53.126Z,994.69
2018-06-27T13:04:29.645Z,994.72
2018-06-27T13:07:30.925Z,994.76
2018-06-27T13:08:03.924Z,994.74
2018-06-27T13:09:24.926Z,994.70
2018-06-27T13:10:03.937Z,994.67
2018-06-27T13:11:04.426Z,994.72
2018-06-27T13:12:03.660Z,994.75
2018-06-27T13:13:27.449Z,994.74
2018-06-27T13:14:04.427Z,994.76
2018-06-27T13:15:05.902Z,994.76
2018-06-27T13:16:04.938Z,994.70
2018-06-27T13:17:04.938Z,994.75
2018-06-27T13:18:04.933Z,994.63
2018-06-27T13:19:08.412Z,994.72
2018-06-27T13:20:26.424Z,994.67
2018-06-27T13:21:27.446Z,994.68
2018-06-27T13:22:07.726Z,994.69
2018-06-27T13:23:19.925Z,994.63
2018-06-27T13:24:26.935Z,994.62
2018-06-27T13:25:06.919Z,994.65
2018-06-27T13:26:26.936Z,994.68
2018-06-27T13:27:05.938Z,994.66
2018-06-27T13:28:27.427Z,994.52
2018-06-27T13:29:05.645Z,994.53
2018-06-27T13:30:06.430Z,994.67
2018-06-27T13:31:08.421Z,994.58
2018-06-27T13:32:06.043Z,994.60
2018-06-27T13:34:38.289Z,994.66
2018-06-27T13:35:38.303Z,994.62
2018-06-27T13:36:59.302Z,994.66
2018-06-27T13:38:00.806Z,994.76
2018-06-27T13:38:38.798Z,994.67
2018-06-27T13:39:38.801Z,994.67
2018-06-27T13:40:38.870Z,994.61
2018-06-27T13:41:42.748Z,994.64
2018-06-27T13:42:39.297Z,994.65
2018-06-27T13:43:39.309Z,994.71
2018-06-27T13:44:40.731Z,994.59
2018-06-27T13:45:38.907Z,994.69
2018-06-27T13:46:40.297Z,994.64
2018-06-27T13:47:39.800Z,994.64
2018-06-27T13:48:39.810Z,994.64
2018-06-27T13:53:03.285Z,994.72
2018-06-27T13:53:43.018Z,994.71
2018-06-27T13:54:43.020Z,994.68
2018-06-27T13:59:07.270Z,994.63
2018-06-27T13:59:46.282Z,994.54
2018-06-27T14:00:46.285Z,994.50
2018-06-27T14:01:53.775Z,994.55
2018-06-27T14:03:07.778Z,994.54
2018-06-27T14:05:18.813Z,994.47
2018-06-27T14:06:18.844Z,994.50
2018-06-27T14:07:18.183Z,994.57
2018-06-27T14:08:20.269Z,994.58
2018-06-27T14:10:50.577Z,994.60
2018-06-27T14:11:50.651Z,994.58
2018-06-27T14:12:50.583Z,994.56
2018-06-27T14:14:14.084Z,994.52
2018-06-27T14:14:52.081Z,994.57
2018-06-27T14:15:53.056Z,994.50
2018-06-27T14:16:51.083Z,994.48
2018-06-27T14:18:16.048Z,994.59
2018-06-27T14:20:43.943Z,994.64
2018-06-27T14:21:22.949Z,994.69
2018-06-27T14:22:28.950Z,994.68
2018-06-27T14:23:23.453Z,994.61
2018-06-27T14:25:54.830Z,994.44
2018-06-27T14:27:02.304Z,994.45
2018-06-27T14:27:54.834Z,994.41
2018-06-27T14:28:55.337Z,994.52
2018-06-27T14:31:26.736Z,994.55
2018-06-27T14:32:26.740Z,994.53
2018-06-27T14:33:26.216Z,994.54
2018-06-27T14:34:41.242Z,994.53
2018-06-27T14:36:58.620Z,994.60
2018-06-27T14:38:13.621Z,994.69
2018-06-27T14:38:58.624Z,994.60
2018-06-27T14:40:21.059Z,994.59
2018-06-27T14:41:00.563Z,994.63
2018-06-27T14:42:20.130Z,994.60
2018-06-27T14:42:59.124Z,994.60
2018-06-27T14:43:59.197Z,994.58
2018-06-27T14:44:58.730Z,994.59
2018-06-27T14:46:20.635Z,994.55
2018-06-27T14:47:01.592Z,994.52
2018-06-27T14:47:59.625Z,994.48
2018-06-27T14:49:21.189Z,994.43
2018-06-27T14:51:52.508Z,994.41
2018-06-27T14:52:32.951Z,994.41
2018-06-27T14:53:32.456Z,994.39
2018-06-27T14:54:38.033Z,994.39
2018-06-27T14:58:40.753Z,994.41
2018-06-27T14:59:34.189Z,994.23
2018-06-27T15:00:58.686Z,994.34
2018-06-27T15:01:35.255Z,994.39
2018-06-27T15:02:35.689Z,994.37
2018-06-27T15:03:35.267Z,994.40
2018-06-27T15:04:35.756Z,994.31
2018-06-27T15:05:34.863Z,994.35
2018-06-27T15:06:35.760Z,994.32
2018-06-27T15:07:35.755Z,994.21
2018-06-27T15:08:35.752Z,994.07
2018-06-27T15:09:57.341Z,994.25
2018-06-27T15:10:36.255Z,994.07
2018-06-27T15:11:35.612Z,994.36
2018-06-27T15:12:36.255Z,994.31
2018-06-27T15:15:29.026Z,994.28
2018-06-27T15:16:29.036Z,994.14
2018-06-27T15:17:29.034Z,994.28
2018-06-27T15:18:07.698Z,994.25
2018-06-27T15:19:07.797Z,994.22
2018-06-27T15:20:15.534Z,994.21
2018-06-27T15:21:08.534Z,994.21
2018-06-27T15:22:29.121Z,994.20
2018-06-27T15:23:23.048Z,994.16
2018-06-27T15:24:30.033Z,994.15
2018-06-27T15:25:09.041Z,994.20
2018-06-27T15:26:09.537Z,994.10
2018-06-27T15:27:11.536Z,994.07
2018-06-27T15:28:09.542Z,994.07
2018-06-27T15:29:09.999Z,994.08